Nearby METAR Reports

 

KIND - Indianapolis, Indiana, USA
Distance from station: SW 6mi, 9km
Updated: Jun 20 2024 7:54pm
Few Clouds
Few Clouds
 Wind from SW
Wind: SW 9 mph , 15 km/h
Temperature: 88°F , 31°C
Heat Index: 91°F , 33°C
Dew Point: 66°F , 19°C
Humidity: 49%
Barometer: 30.23 inHg , 1023.7 hPa
Clouds: Few Clouds
Visibility: 10 miles , 16 km
Cloud details: Few Clouds 6000 ft
Few Clouds 25000 ft
2024/06/20 23:54 KIND 202354Z 22008KT 10SM FEW060 FEW250 31/19 A3023 RMK AO2 SLP229 T03060189 10333 20306 56007
KEYE - Indianapolis, Indiana, USA
Distance from station: NW 5mi, 8km
Updated: Jun 20 2024 7:53pm
Clear
Clear
 Wind from varies
Wind: varies 3 mph , 6 km/h
Temperature: 88°F , 31°C
Heat Index: 91°F , 33°C
Dew Point: 66°F , 19°C
Humidity: 49%
Barometer: 30.22 inHg , 1023.4 hPa
Clouds: Clear
Visibility: 10 miles , 16 km
2024/06/20 23:53 KEYE 202353Z AUTO VRB03KT 10SM CLR 31/19 A3022 RMK AO2 SLP226 T03110194 10333 20311 56008
 
KTYQ - Indianapolis Exc, Indiana, USA
Distance from station: N 17mi, 28km
Updated: Jun 20 2024 8:15pm
Clear
Clear
 Wind from WSW
Wind: WSW 5 mph , 7 km/h
Temperature: 86°F , 30°C
Heat Index: 88°F , 31°C
Dew Point: 66°F , 19°C
Humidity: 52%
Barometer: 30.25 inHg , 1024.4 hPa
Clouds: Clear
Visibility: 10 miles , 16 km
2024/06/21 00:15 KTYQ 210015Z AUTO 25004KT 10SM CLR 30/19 A3025 RMK AO2 T03030192
KGEZ - Shelbyville, Indiana, USA
Distance from station: ESE 27mi, 43km
Updated: Jun 20 2024 7:53pm
Clear
Clear
 
Temperature: 90°F , 32°C
Heat Index: 92°F , 33°C
Dew Point: 64°F , 18°C
Humidity: 43%
Barometer: 30.23 inHg , 1023.7 hPa
Clouds: Clear
Visibility: 10 miles , 16 km
2024/06/20 23:53 KGEZ 202353Z AUTO 10SM CLR 32/18 A3023 RMK AO2 SLP228 T03220183 10339 20317 56008
 
KAID - Anderson Municip, Indiana, USA
Distance from station: NE 40mi, 64km
Updated: Jun 20 2024 8:55pm
Clear
Clear
 Wind from calm
Wind: Calm
Temperature: 84°F , 29°C
Heat Index: 85°F , 29°C
Dew Point: 64°F , 18°C
Humidity: 51%
Barometer: 30.25 inHg , 1024.4 hPa
Clouds: Clear
Visibility: 10 miles , 16 km
2024/06/21 00:55 KAID 210055Z AUTO 00000KT 10SM CLR 29/18 A3025 RMK AO2 T02900181
KBAK - Columbus/Balkala, Indiana, USA
Distance from station: SSE 40mi, 64km
Updated: Jun 20 2024 7:45pm
Few Clouds
Few Clouds
 Wind from WNW
Wind: WNW 5 mph , 7 km/h
Temperature: 84°F , 29°C
Heat Index: 87°F , 31°C
Dew Point: 68°F , 20°C
Humidity: 58%
Barometer: 30.24 inHg , 1024 hPa
Clouds: Few Clouds
Visibility: 10 miles , 16 km
Cloud details: Few Clouds 10000 ft
2024/06/20 23:45 KBAK 202345Z 29004KT 10SM FEW100 29/20 A3024
 
KBMG - Bloomington, Indiana, USA
Distance from station: SSW 48mi, 78km
Updated: Jun 20 2024 7:53pm
Clear
Clear
 Wind from WSW
Wind: WSW 3 mph , 6 km/h
Temperature: 88°F , 31°C
Heat Index: 91°F , 33°C
Dew Point: 66°F , 19°C
Humidity: 49%
Barometer: 30.25 inHg , 1024.4 hPa
Clouds: Clear
Visibility: 10 miles , 16 km
2024/06/20 23:53 KBMG 202353Z 24003KT 10SM CLR 31/19 A3025 RMK AO2 SLP232 T03060194 10322 20306 56009
KOKK - Kokomo, Indiana, USA
Distance from station: N 53mi, 85km
Updated: Jun 20 2024 7:56pm
Clear
Clear
 Wind from W
Wind: W 7 mph , 11 km/h
Temperature: 91°F , 33°C
Heat Index: 93°F , 34°C
Dew Point: 64°F , 18°C
Humidity: 41%
Barometer: 30.23 inHg , 1023.7 hPa
Clouds: Clear
Visibility: 10 miles , 16 km
2024/06/20 23:56 KOKK 202356Z AUTO 27006KT 10SM CLR 33/18 A3023 RMK AO2 SLP231 T03280183 10339 20317 56008